sensor_id;sensor_type;location;lat;lon;timestamp;P1;durP1;ratioP1;P2;durP2;ratioP2
4021;SDS011;2025;48.260;16.432;2023-04-25T00:01:01;2.97;;;0.52;;
4021;SDS011;2025;48.260;16.432;2023-04-25T00:03:28;2.63;;;0.70;;
4021;SDS011;2025;48.260;16.432;2023-04-25T00:05:55;2.88;;;1.25;;
4021;SDS011;2025;48.260;16.432;2023-04-25T00:08:23;3.25;;;1.25;;
4021;SDS011;2025;48.260;16.432;2023-04-25T00:10:52;3.58;;;0.95;;
4021;SDS011;2025;48.260;16.432;2023-04-25T00:13:19;3.72;;;0.65;;
4021;SDS011;2025;48.260;16.432;2023-04-25T00:15:47;3.58;;;0.60;;
4021;SDS011;2025;48.260;16.432;2023-04-25T00:18:15;3.97;;;0.60;;
4021;SDS011;2025;48.260;16.432;2023-04-25T00:20:43;4.90;;;0.70;;
4021;SDS011;2025;48.260;16.432;2023-04-25T00:23:11;3.90;;;0.70;;
4021;SDS011;2025;48.260;16.432;2023-04-25T00:25:42;2.45;;;0.55;;
4021;SDS011;2025;48.260;16.432;2023-04-25T00:28:11;3.88;;;0.90;;
4021;SDS011;2025;48.260;16.432;2023-04-25T00:30:38;3.92;;;0.82;;
4021;SDS011;2025;48.260;16.432;2023-04-25T00:33:05;2.95;;;0.57;;
4021;SDS011;2025;48.260;16.432;2023-04-25T00:35:32;3.33;;;0.75;;
4021;SDS011;2025;48.260;16.432;2023-04-25T00:37:59;3.65;;;1.02;;
4021;SDS011;2025;48.260;16.432;2023-04-25T00:40:27;2.58;;;0.52;;
4021;SDS011;2025;48.260;16.432;2023-04-25T00:42:54;4.28;;;0.63;;
4021;SDS011;2025;48.260;16.432;2023-04-25T00:45:22;3.53;;;0.77;;
4021;SDS011;2025;48.260;16.432;2023-04-25T00:47:54;3.03;;;1.17;;
4021;SDS011;2025;48.260;16.432;2023-04-25T00:50:21;3.08;;;0.75;;
4021;SDS011;2025;48.260;16.432;2023-04-25T00:52:48;3.20;;;0.73;;
4021;SDS011;2025;48.260;16.432;2023-04-25T00:55:15;2.85;;;0.85;;
4021;SDS011;2025;48.260;16.432;2023-04-25T00:57:42;3.45;;;0.47;;
4021;SDS011;2025;48.260;16.432;2023-04-25T01:00:10;3.13;;;0.98;;
4021;SDS011;2025;48.260;16.432;2023-04-25T01:02:40;2.80;;;0.88;;
4021;SDS011;2025;48.260;16.432;2023-04-25T01:05:08;3.38;;;1.23;;
4021;SDS011;2025;48.260;16.432;2023-04-25T01:07:35;3.78;;;1.25;;
4021;SDS011;2025;48.260;16.432;2023-04-25T01:10:03;2.85;;;0.55;;
4021;SDS011;2025;48.260;16.432;2023-04-25T01:12:31;2.90;;;0.93;;
4021;SDS011;2025;48.260;16.432;2023-04-25T01:14:58;3.25;;;0.85;;
4021;SDS011;2025;48.260;16.432;2023-04-25T01:17:25;3.40;;;0.40;;
4021;SDS011;2025;48.260;16.432;2023-04-25T01:19:53;5.05;;;0.93;;
4021;SDS011;2025;48.260;16.432;2023-04-25T01:22:22;5.00;;;0.68;;
4021;SDS011;2025;48.260;16.432;2023-04-25T01:24:49;4.07;;;0.82;;
4021;SDS011;2025;48.260;16.432;2023-04-25T01:27:17;3.63;;;1.15;;
4021;SDS011;2025;48.260;16.432;2023-04-25T01:29:45;3.15;;;1.05;;
4021;SDS011;2025;48.260;16.432;2023-04-25T01:32:13;3.75;;;0.85;;
4021;SDS011;2025;48.260;16.432;2023-04-25T01:34:40;5.25;;;1.25;;
4021;SDS011;2025;48.260;16.432;2023-04-25T01:37:07;3.50;;;1.00;;
4021;SDS011;2025;48.260;16.432;2023-04-25T01:39:36;3.42;;;0.80;;
4021;SDS011;2025;48.260;16.432;2023-04-25T01:42:03;3.30;;;1.00;;
4021;SDS011;2025;48.260;16.432;2023-04-25T01:44:32;3.60;;;1.08;;
4021;SDS011;2025;48.260;16.432;2023-04-25T01:46:59;4.88;;;1.42;;
4021;SDS011;2025;48.260;16.432;2023-04-25T01:49:26;4.55;;;1.33;;
4021;SDS011;2025;48.260;16.432;2023-04-25T01:51:53;3.85;;;1.60;;
4021;SDS011;2025;48.260;16.432;2023-04-25T01:54:20;3.63;;;0.73;;
4021;SDS011;2025;48.260;16.432;2023-04-25T01:56:51;3.90;;;1.10;;
4021;SDS011;2025;48.260;16.432;2023-04-25T01:59:18;4.18;;;1.17;;
4021;SDS011;2025;48.260;16.432;2023-04-25T02:01:47;3.90;;;0.70;;
4021;SDS011;2025;48.260;16.432;2023-04-25T02:04:13;4.18;;;1.17;;
4021;SDS011;2025;48.260;16.432;2023-04-25T02:06:40;3.75;;;0.82;;
4021;SDS011;2025;48.260;16.432;2023-04-25T02:09:07;3.63;;;1.25;;
4021;SDS011;2025;48.260;16.432;2023-04-25T02:11:34;4.35;;;0.93;;
4021;SDS011;2025;48.260;16.432;2023-04-25T02:14:03;3.58;;;1.13;;
4021;SDS011;2025;48.260;16.432;2023-04-25T02:16:30;3.90;;;1.50;;
4021;SDS011;2025;48.260;16.432;2023-04-25T02:18:57;3.25;;;1.17;;
4021;SDS011;2025;48.260;16.432;2023-04-25T02:21:24;5.97;;;1.45;;
4021;SDS011;2025;48.260;16.432;2023-04-25T02:23:51;4.20;;;1.30;;
4021;SDS011;2025;48.260;16.432;2023-04-25T02:26:19;4.18;;;1.35;;
4021;SDS011;2025;48.260;16.432;2023-04-25T02:28:46;3.22;;;1.02;;
4021;SDS011;2025;48.260;16.432;2023-04-25T02:31:14;4.78;;;0.80;;
4021;SDS011;2025;48.260;16.432;2023-04-25T02:33:41;2.75;;;0.85;;
4021;SDS011;2025;48.260;16.432;2023-04-25T02:36:08;4.55;;;1.52;;
4021;SDS011;2025;48.260;16.432;2023-04-25T02:38:35;3.42;;;1.08;;
4021;SDS011;2025;48.260;16.432;2023-04-25T02:41:02;3.53;;;0.98;;
4021;SDS011;2025;48.260;16.432;2023-04-25T02:43:29;3.85;;;1.33;;
4021;SDS011;2025;48.260;16.432;2023-04-25T02:45:56;3.72;;;1.05;;
4021;SDS011;2025;48.260;16.432;2023-04-25T02:48:24;4.63;;;1.60;;
4021;SDS011;2025;48.260;16.432;2023-04-25T02:50:51;3.63;;;1.13;;
4021;SDS011;2025;48.260;16.432;2023-04-25T02:53:18;5.10;;;1.08;;
4021;SDS011;2025;48.260;16.432;2023-04-25T02:55:45;2.92;;;0.93;;
4021;SDS011;2025;48.260;16.432;2023-04-25T02:58:12;3.22;;;1.13;;
4021;SDS011;2025;48.260;16.432;2023-04-25T03:00:39;3.65;;;0.90;;
4021;SDS011;2025;48.260;16.432;2023-04-25T03:03:06;5.25;;;1.35;;
4021;SDS011;2025;48.260;16.432;2023-04-25T03:05:35;5.18;;;2.58;;
4021;SDS011;2025;48.260;16.432;2023-04-25T03:08:02;4.45;;;1.17;;
4021;SDS011;2025;48.260;16.432;2023-04-25T03:10:29;6.57;;;1.85;;
4021;SDS011;2025;48.260;16.432;2023-04-25T03:12:56;5.05;;;1.10;;
4021;SDS011;2025;48.260;16.432;2023-04-25T03:15:23;4.85;;;1.60;;
4021;SDS011;2025;48.260;16.432;2023-04-25T03:17:50;5.00;;;1.25;;
4021;SDS011;2025;48.260;16.432;2023-04-25T03:20:17;3.85;;;1.23;;
4021;SDS011;2025;48.260;16.432;2023-04-25T03:22:45;4.35;;;1.38;;
4021;SDS011;2025;48.260;16.432;2023-04-25T03:25:12;4.30;;;1.17;;
4021;SDS011;2025;48.260;16.432;2023-04-25T03:27:39;4.88;;;1.13;;
4021;SDS011;2025;48.260;16.432;2023-04-25T03:30:06;4.55;;;1.00;;
4021;SDS011;2025;48.260;16.432;2023-04-25T03:32:34;3.83;;;1.30;;
4021;SDS011;2025;48.260;16.432;2023-04-25T03:35:01;3.50;;;1.27;;
4021;SDS011;2025;48.260;16.432;2023-04-25T03:37:29;4.35;;;1.77;;
4021;SDS011;2025;48.260;16.432;2023-04-25T03:39:57;3.90;;;1.35;;
4021;SDS011;2025;48.260;16.432;2023-04-25T03:42:24;4.30;;;1.10;;
4021;SDS011;2025;48.260;16.432;2023-04-25T03:44:51;4.05;;;1.58;;
4021;SDS011;2025;48.260;16.432;2023-04-25T03:47:18;3.58;;;1.20;;
4021;SDS011;2025;48.260;16.432;2023-04-25T03:49:45;4.65;;;1.17;;
4021;SDS011;2025;48.260;16.432;2023-04-25T03:52:12;4.43;;;1.88;;
4021;SDS011;2025;48.260;16.432;2023-04-25T03:54:39;4.93;;;1.77;;
4021;SDS011;2025;48.260;16.432;2023-04-25T03:57:07;3.95;;;1.13;;
4021;SDS011;2025;48.260;16.432;2023-04-25T03:59:35;3.67;;;1.58;;
4021;SDS011;2025;48.260;16.432;2023-04-25T04:02:02;3.78;;;1.08;;
4021;SDS011;2025;48.260;16.432;2023-04-25T04:04:29;4.10;;;1.25;;
4021;SDS011;2025;48.260;16.432;2023-04-25T04:06:56;4.10;;;1.38;;
4021;SDS011;2025;48.260;16.432;2023-04-25T04:09:23;5.15;;;1.50;;
4021;SDS011;2025;48.260;16.432;2023-04-25T04:11:50;4.32;;;1.48;;
4021;SDS011;2025;48.260;16.432;2023-04-25T04:14:19;4.60;;;1.65;;
4021;SDS011;2025;48.260;16.432;2023-04-25T04:16:46;4.20;;;1.00;;
4021;SDS011;2025;48.260;16.432;2023-04-25T04:19:14;4.82;;;1.90;;
4021;SDS011;2025;48.260;16.432;2023-04-25T04:21:41;4.55;;;1.75;;
4021;SDS011;2025;48.260;16.432;2023-04-25T04:24:08;5.90;;;1.52;;
4021;SDS011;2025;48.260;16.432;2023-04-25T04:26:35;4.47;;;1.77;;
4021;SDS011;2025;48.260;16.432;2023-04-25T04:29:03;4.25;;;1.95;;
4021;SDS011;2025;48.260;16.432;2023-04-25T04:31:33;5.00;;;1.55;;
4021;SDS011;2025;48.260;16.432;2023-04-25T04:34:00;4.50;;;2.00;;
4021;SDS011;2025;48.260;16.432;2023-04-25T04:36:28;5.15;;;1.50;;
4021;SDS011;2025;48.260;16.432;2023-04-25T04:38:55;5.78;;;1.73;;
4021;SDS011;2025;48.260;16.432;2023-04-25T04:41:22;4.78;;;2.15;;
4021;SDS011;2025;48.260;16.432;2023-04-25T04:43:49;6.82;;;1.50;;
4021;SDS011;2025;48.260;16.432;2023-04-25T04:46:18;6.10;;;1.58;;
4021;SDS011;2025;48.260;16.432;2023-04-25T04:48:46;5.07;;;1.88;;
4021;SDS011;2025;48.260;16.432;2023-04-25T04:51:13;6.05;;;1.58;;
4021;SDS011;2025;48.260;16.432;2023-04-25T04:53:40;4.55;;;1.50;;
4021;SDS011;2025;48.260;16.432;2023-04-25T04:56:07;4.97;;;1.80;;
4021;SDS011;2025;48.260;16.432;2023-04-25T04:58:34;7.20;;;1.92;;
4021;SDS011;2025;48.260;16.432;2023-04-25T05:01:01;4.75;;;1.95;;
4021;SDS011;2025;48.260;16.432;2023-04-25T05:03:28;4.80;;;1.35;;
4021;SDS011;2025;48.260;16.432;2023-04-25T05:05:57;3.95;;;1.40;;
4021;SDS011;2025;48.260;16.432;2023-04-25T05:08:23;4.88;;;1.77;;
4021;SDS011;2025;48.260;16.432;2023-04-25T05:10:50;5.88;;;1.83;;
4021;SDS011;2025;48.260;16.432;2023-04-25T05:13:17;7.60;;;2.03;;
4021;SDS011;2025;48.260;16.432;2023-04-25T05:15:44;5.65;;;1.98;;
4021;SDS011;2025;48.260;16.432;2023-04-25T05:18:11;4.45;;;1.38;;
4021;SDS011;2025;48.260;16.432;2023-04-25T05:20:38;5.60;;;2.67;;
4021;SDS011;2025;48.260;16.432;2023-04-25T05:23:07;6.28;;;1.83;;
4021;SDS011;2025;48.260;16.432;2023-04-25T05:25:34;4.50;;;1.33;;
4021;SDS011;2025;48.260;16.432;2023-04-25T05:28:00;4.85;;;1.75;;
4021;SDS011;2025;48.260;16.432;2023-04-25T05:30:27;5.38;;;3.63;;
4021;SDS011;2025;48.260;16.432;2023-04-25T05:32:54;6.00;;;2.08;;
4021;SDS011;2025;48.260;16.432;2023-04-25T05:35:21;5.65;;;1.80;;
4021;SDS011;2025;48.260;16.432;2023-04-25T05:37:48;7.63;;;2.17;;
4021;SDS011;2025;48.260;16.432;2023-04-25T05:40:17;6.60;;;2.50;;
4021;SDS011;2025;48.260;16.432;2023-04-25T05:42:44;5.65;;;2.13;;
4021;SDS011;2025;48.260;16.432;2023-04-25T05:45:11;6.68;;;1.83;;
4021;SDS011;2025;48.260;16.432;2023-04-25T05:47:38;6.18;;;2.05;;
4021;SDS011;2025;48.260;16.432;2023-04-25T05:50:05;5.15;;;1.88;;
4021;SDS011;2025;48.260;16.432;2023-04-25T05:52:33;6.75;;;2.47;;
4021;SDS011;2025;48.260;16.432;2023-04-25T05:55:00;6.80;;;2.83;;
4021;SDS011;2025;48.260;16.432;2023-04-25T05:57:29;6.75;;;2.40;;
4021;SDS011;2025;48.260;16.432;2023-04-25T05:59:56;6.60;;;2.35;;
4021;SDS011;2025;48.260;16.432;2023-04-25T06:02:24;6.13;;;2.45;;
4021;SDS011;2025;48.260;16.432;2023-04-25T06:04:51;6.53;;;2.00;;
4021;SDS011;2025;48.260;16.432;2023-04-25T06:07:19;5.40;;;2.17;;
4021;SDS011;2025;48.260;16.432;2023-04-25T06:09:46;5.22;;;2.30;;
4021;SDS011;2025;48.260;16.432;2023-04-25T06:12:13;6.60;;;2.35;;
4021;SDS011;2025;48.260;16.432;2023-04-25T06:14:41;6.45;;;1.77;;
4021;SDS011;2025;48.260;16.432;2023-04-25T06:17:08;5.70;;;1.92;;
4021;SDS011;2025;48.260;16.432;2023-04-25T06:19:35;4.85;;;1.92;;
4021;SDS011;2025;48.260;16.432;2023-04-25T06:22:02;5.43;;;1.75;;
4021;SDS011;2025;48.260;16.432;2023-04-25T06:24:29;5.80;;;1.48;;
4021;SDS011;2025;48.260;16.432;2023-04-25T06:26:56;6.00;;;1.75;;
4021;SDS011;2025;48.260;16.432;2023-04-25T06:29:23;4.13;;;1.35;;
4021;SDS011;2025;48.260;16.432;2023-04-25T06:31:51;5.72;;;1.58;;
4021;SDS011;2025;48.260;16.432;2023-04-25T06:34:18;6.70;;;2.35;;
4021;SDS011;2025;48.260;16.432;2023-04-25T06:36:45;4.47;;;1.20;;
4021;SDS011;2025;48.260;16.432;2023-04-25T06:39:12;5.20;;;1.20;;
4021;SDS011;2025;48.260;16.432;2023-04-25T06:41:40;4.95;;;1.77;;
4021;SDS011;2025;48.260;16.432;2023-04-25T06:44:07;4.25;;;1.73;;
4021;SDS011;2025;48.260;16.432;2023-04-25T06:46:34;4.45;;;1.45;;
4021;SDS011;2025;48.260;16.432;2023-04-25T06:49:04;6.63;;;1.42;;
4021;SDS011;2025;48.260;16.432;2023-04-25T06:51:31;4.50;;;1.52;;
4021;SDS011;2025;48.260;16.432;2023-04-25T06:53:58;5.53;;;1.55;;
4021;SDS011;2025;48.260;16.432;2023-04-25T06:56:25;6.63;;;1.90;;
4021;SDS011;2025;48.260;16.432;2023-04-25T06:58:54;4.95;;;1.63;;
4021;SDS011;2025;48.260;16.432;2023-04-25T07:01:21;4.90;;;1.60;;
4021;SDS011;2025;48.260;16.432;2023-04-25T07:03:48;4.28;;;1.63;;
4021;SDS011;2025;48.260;16.432;2023-04-25T07:06:17;4.72;;;1.98;;
4021;SDS011;2025;48.260;16.432;2023-04-25T07:08:44;4.95;;;1.48;;
4021;SDS011;2025;48.260;16.432;2023-04-25T07:11:11;4.93;;;1.73;;
4021;SDS011;2025;48.260;16.432;2023-04-25T07:13:38;5.25;;;2.03;;
4021;SDS011;2025;48.260;16.432;2023-04-25T07:16:05;5.72;;;1.95;;
4021;SDS011;2025;48.260;16.432;2023-04-25T07:18:32;5.55;;;2.13;;
4021;SDS011;2025;48.260;16.432;2023-04-25T07:20:59;4.60;;;1.45;;
4021;SDS011;2025;48.260;16.432;2023-04-25T07:23:27;5.82;;;2.10;;
4021;SDS011;2025;48.260;16.432;2023-04-25T07:25:55;5.50;;;1.85;;
4021;SDS011;2025;48.260;16.432;2023-04-25T07:28:22;5.28;;;1.88;;
4021;SDS011;2025;48.260;16.432;2023-04-25T07:30:49;6.65;;;2.10;;
4021;SDS011;2025;48.260;16.432;2023-04-25T07:33:16;5.05;;;2.00;;
4021;SDS011;2025;48.260;16.432;2023-04-25T07:35:45;5.47;;;1.88;;
4021;SDS011;2025;48.260;16.432;2023-04-25T07:38:12;5.05;;;1.70;;
4021;SDS011;2025;48.260;16.432;2023-04-25T07:40:40;5.55;;;1.90;;
4021;SDS011;2025;48.260;16.432;2023-04-25T07:43:08;6.15;;;1.85;;
4021;SDS011;2025;48.260;16.432;2023-04-25T07:45:37;6.97;;;1.65;;
4021;SDS011;2025;48.260;16.432;2023-04-25T07:48:04;6.40;;;2.03;;
4021;SDS011;2025;48.260;16.432;2023-04-25T07:50:31;5.63;;;1.63;;
4021;SDS011;2025;48.260;16.432;2023-04-25T07:52:58;5.03;;;1.95;;
4021;SDS011;2025;48.260;16.432;2023-04-25T07:55:25;5.57;;;1.52;;
4021;SDS011;2025;48.260;16.432;2023-04-25T07:57:53;5.68;;;1.67;;
4021;SDS011;2025;48.260;16.432;2023-04-25T08:00:20;5.53;;;2.35;;
4021;SDS011;2025;48.260;16.432;2023-04-25T08:02:47;5.32;;;1.67;;
4021;SDS011;2025;48.260;16.432;2023-04-25T08:05:16;6.10;;;1.75;;
4021;SDS011;2025;48.260;16.432;2023-04-25T08:07:43;4.53;;;2.15;;
4021;SDS011;2025;48.260;16.432;2023-04-25T08:10:10;5.53;;;1.55;;
4021;SDS011;2025;48.260;16.432;2023-04-25T08:12:37;4.70;;;1.55;;
4021;SDS011;2025;48.260;16.432;2023-04-25T08:15:06;5.75;;;1.23;;
4021;SDS011;2025;48.260;16.432;2023-04-25T08:17:33;4.95;;;1.67;;
4021;SDS011;2025;48.260;16.432;2023-04-25T08:20:00;5.75;;;1.77;;
4021;SDS011;2025;48.260;16.432;2023-04-25T08:22:30;5.22;;;1.70;;
4021;SDS011;2025;48.260;16.432;2023-04-25T08:24:57;5.28;;;1.38;;
4021;SDS011;2025;48.260;16.432;2023-04-25T08:27:24;5.13;;;1.30;;
4021;SDS011;2025;48.260;16.432;2023-04-25T08:29:51;5.30;;;1.63;;
4021;SDS011;2025;48.260;16.432;2023-04-25T08:32:20;4.93;;;1.38;;
4021;SDS011;2025;48.260;16.432;2023-04-25T08:34:47;3.60;;;1.10;;
4021;SDS011;2025;48.260;16.432;2023-04-25T08:37:14;4.10;;;1.85;;
4021;SDS011;2025;48.260;16.432;2023-04-25T08:39:41;6.18;;;1.67;;
4021;SDS011;2025;48.260;16.432;2023-04-25T08:42:08;5.38;;;1.88;;
4021;SDS011;2025;48.260;16.432;2023-04-25T08:44:38;5.63;;;2.38;;
4021;SDS011;2025;48.260;16.432;2023-04-25T08:47:05;4.00;;;0.95;;
4021;SDS011;2025;48.260;16.432;2023-04-25T08:49:34;4.32;;;1.55;;
4021;SDS011;2025;48.260;16.432;2023-04-25T08:52:02;5.25;;;1.50;;
4021;SDS011;2025;48.260;16.432;2023-04-25T08:54:31;3.90;;;1.05;;
4021;SDS011;2025;48.260;16.432;2023-04-25T08:56:59;4.40;;;1.60;;
4021;SDS011;2025;48.260;16.432;2023-04-25T08:59:29;3.97;;;1.38;;
4021;SDS011;2025;48.260;16.432;2023-04-25T09:01:56;4.93;;;1.58;;
4021;SDS011;2025;48.260;16.432;2023-04-25T09:04:23;6.07;;;1.77;;
4021;SDS011;2025;48.260;16.432;2023-04-25T09:06:52;5.63;;;2.15;;
4021;SDS011;2025;48.260;16.432;2023-04-25T09:09:19;4.97;;;1.13;;
4021;SDS011;2025;48.260;16.432;2023-04-25T09:11:46;5.80;;;1.98;;
4021;SDS011;2025;48.260;16.432;2023-04-25T09:14:14;5.70;;;2.08;;
4021;SDS011;2025;48.260;16.432;2023-04-25T09:16:57;4.70;;;1.60;;
4021;SDS011;2025;48.260;16.432;2023-04-25T09:19:25;5.80;;;1.65;;
4021;SDS011;2025;48.260;16.432;2023-04-25T09:21:55;6.43;;;1.95;;
4021;SDS011;2025;48.260;16.432;2023-04-25T09:24:32;4.32;;;1.38;;
4021;SDS011;2025;48.260;16.432;2023-04-25T09:27:02;6.40;;;1.73;;
4021;SDS011;2025;48.260;16.432;2023-04-25T09:29:30;4.53;;;1.50;;
4021;SDS011;2025;48.260;16.432;2023-04-25T09:32:15;5.22;;;0.93;;
4021;SDS011;2025;48.260;16.432;2023-04-25T09:34:44;5.30;;;1.08;;
4021;SDS011;2025;48.260;16.432;2023-04-25T09:37:16;5.88;;;1.77;;
4021;SDS011;2025;48.260;16.432;2023-04-25T09:39:45;4.88;;;1.27;;
4021;SDS011;2025;48.260;16.432;2023-04-25T09:42:12;4.35;;;1.23;;
4021;SDS011;2025;48.260;16.432;2023-04-25T09:44:44;4.35;;;1.73;;
4021;SDS011;2025;48.260;16.432;2023-04-25T09:47:11;4.03;;;1.00;;
4021;SDS011;2025;48.260;16.432;2023-04-25T09:49:40;3.72;;;0.93;;
4021;SDS011;2025;48.260;16.432;2023-04-25T09:52:08;4.47;;;1.48;;
4021;SDS011;2025;48.260;16.432;2023-04-25T09:54:41;4.70;;;1.13;;
4021;SDS011;2025;48.260;16.432;2023-04-25T09:57:10;4.50;;;1.40;;
4021;SDS011;2025;48.260;16.432;2023-04-25T09:59:38;4.68;;;1.05;;
4021;SDS011;2025;48.260;16.432;2023-04-25T10:02:09;3.95;;;0.90;;
4021;SDS011;2025;48.260;16.432;2023-04-25T10:04:37;2.83;;;0.75;;
4021;SDS011;2025;48.260;16.432;2023-04-25T10:07:05;3.90;;;0.98;;
4021;SDS011;2025;48.260;16.432;2023-04-25T10:09:33;5.47;;;0.75;;
4021;SDS011;2025;48.260;16.432;2023-04-25T10:12:04;4.90;;;0.60;;
4021;SDS011;2025;48.260;16.432;2023-04-25T10:14:32;3.67;;;1.08;;
4021;SDS011;2025;48.260;16.432;2023-04-25T10:16:59;3.75;;;1.33;;
4021;SDS011;2025;48.260;16.432;2023-04-25T10:19:27;3.17;;;0.65;;
4021;SDS011;2025;48.260;16.432;2023-04-25T10:21:55;3.35;;;1.10;;
4021;SDS011;2025;48.260;16.432;2023-04-25T10:24:33;3.20;;;1.55;;
4021;SDS011;2025;48.260;16.432;2023-04-25T10:27:01;3.33;;;0.95;;
4021;SDS011;2025;48.260;16.432;2023-04-25T10:29:30;3.53;;;1.23;;
4021;SDS011;2025;48.260;16.432;2023-04-25T10:31:57;4.07;;;1.40;;
4021;SDS011;2025;48.260;16.432;2023-04-25T10:34:24;3.47;;;0.60;;
4021;SDS011;2025;48.260;16.432;2023-04-25T10:37:05;2.65;;;0.55;;
4021;SDS011;2025;48.260;16.432;2023-04-25T10:39:35;3.00;;;0.68;;
4021;SDS011;2025;48.260;16.432;2023-04-25T10:42:03;2.50;;;0.45;;
4021;SDS011;2025;48.260;16.432;2023-04-25T10:44:31;2.83;;;0.50;;
4021;SDS011;2025;48.260;16.432;2023-04-25T10:46:59;3.88;;;0.75;;
4021;SDS011;2025;48.260;16.432;2023-04-25T10:49:28;3.92;;;0.63;;
4021;SDS011;2025;48.260;16.432;2023-04-25T10:52:19;2.72;;;0.68;;
4021;SDS011;2025;48.260;16.432;2023-04-25T10:54:53;2.92;;;0.45;;
4021;SDS011;2025;48.260;16.432;2023-04-25T10:57:28;3.05;;;1.10;;
4021;SDS011;2025;48.260;16.432;2023-04-25T11:00:00;3.28;;;0.75;;
4021;SDS011;2025;48.260;16.432;2023-04-25T11:02:31;2.85;;;0.52;;
4021;SDS011;2025;48.260;16.432;2023-04-25T11:05:02;4.07;;;0.45;;
4021;SDS011;2025;48.260;16.432;2023-04-25T11:07:33;3.95;;;1.05;;
4021;SDS011;2025;48.260;16.432;2023-04-25T11:10:04;3.45;;;0.65;;
4021;SDS011;2025;48.260;16.432;2023-04-25T11:12:34;3.42;;;0.65;;
4021;SDS011;2025;48.260;16.432;2023-04-25T11:15:01;2.75;;;0.52;;
4021;SDS011;2025;48.260;16.432;2023-04-25T11:17:29;3.45;;;0.68;;
4021;SDS011;2025;48.260;16.432;2023-04-25T11:19:57;2.67;;;0.43;;
4021;SDS011;2025;48.260;16.432;2023-04-25T11:22:24;2.88;;;0.75;;
4021;SDS011;2025;48.260;16.432;2023-04-25T11:24:52;2.67;;;0.52;;
4021;SDS011;2025;48.260;16.432;2023-04-25T11:27:19;4.60;;;1.10;;
4021;SDS011;2025;48.260;16.432;2023-04-25T11:29:51;5.13;;;0.85;;
4021;SDS011;2025;48.260;16.432;2023-04-25T11:32:18;5.90;;;1.25;;
4021;SDS011;2025;48.260;16.432;2023-04-25T11:34:46;5.03;;;0.65;;
4021;SDS011;2025;48.260;16.432;2023-04-25T11:37:14;3.88;;;1.33;;
4021;SDS011;2025;48.260;16.432;2023-04-25T11:39:44;3.75;;;1.25;;
4021;SDS011;2025;48.260;16.432;2023-04-25T11:42:12;3.78;;;1.02;;
4021;SDS011;2025;48.260;16.432;2023-04-25T11:44:40;4.22;;;2.30;;
4021;SDS011;2025;48.260;16.432;2023-04-25T11:47:08;3.20;;;0.57;;
4021;SDS011;2025;48.260;16.432;2023-04-25T11:49:35;3.88;;;1.15;;
4021;SDS011;2025;48.260;16.432;2023-04-25T11:52:02;2.70;;;0.80;;
4021;SDS011;2025;48.260;16.432;2023-04-25T11:54:34;3.50;;;0.73;;
4021;SDS011;2025;48.260;16.432;2023-04-25T11:57:02;2.92;;;0.77;;
4021;SDS011;2025;48.260;16.432;2023-04-25T11:59:29;3.38;;;0.73;;
4021;SDS011;2025;48.260;16.432;2023-04-25T12:01:56;3.80;;;0.80;;
4021;SDS011;2025;48.260;16.432;2023-04-25T12:04:29;3.42;;;0.47;;
4021;SDS011;2025;48.260;16.432;2023-04-25T12:06:57;4.90;;;0.43;;
4021;SDS011;2025;48.260;16.432;2023-04-25T12:09:29;4.22;;;0.57;;
4021;SDS011;2025;48.260;16.432;2023-04-25T12:11:57;2.15;;;0.45;;
4021;SDS011;2025;48.260;16.432;2023-04-25T12:14:28;3.05;;;0.35;;
4021;SDS011;2025;48.260;16.432;2023-04-25T12:16:56;2.10;;;0.65;;
4021;SDS011;2025;48.260;16.432;2023-04-25T12:19:25;2.88;;;0.70;;
4021;SDS011;2025;48.260;16.432;2023-04-25T12:21:54;3.83;;;1.05;;
4021;SDS011;2025;48.260;16.432;2023-04-25T12:24:21;2.00;;;0.38;;
4021;SDS011;2025;48.260;16.432;2023-04-25T12:26:51;2.38;;;0.35;;
4021;SDS011;2025;48.260;16.432;2023-04-25T12:29:20;2.83;;;0.63;;
4021;SDS011;2025;48.260;16.432;2023-04-25T12:31:49;3.20;;;1.23;;
4021;SDS011;2025;48.260;16.432;2023-04-25T12:34:17;2.45;;;0.52;;
4021;SDS011;2025;48.260;16.432;2023-04-25T12:36:44;3.15;;;0.40;;
4021;SDS011;2025;48.260;16.432;2023-04-25T12:39:16;3.75;;;0.75;;
4021;SDS011;2025;48.260;16.432;2023-04-25T12:41:43;2.63;;;0.50;;
4021;SDS011;2025;48.260;16.432;2023-04-25T12:44:10;3.97;;;0.65;;
4021;SDS011;2025;48.260;16.432;2023-04-25T12:46:37;3.50;;;0.77;;
4021;SDS011;2025;48.260;16.432;2023-04-25T12:49:06;4.97;;;0.52;;
4021;SDS011;2025;48.260;16.432;2023-04-25T12:51:33;2.55;;;0.77;;
4021;SDS011;2025;48.260;16.432;2023-04-25T12:54:00;2.20;;;0.22;;
4021;SDS011;2025;48.260;16.432;2023-04-25T12:56:29;4.22;;;0.60;;
4021;SDS011;2025;48.260;16.432;2023-04-25T12:58:56;3.55;;;0.40;;
4021;SDS011;2025;48.260;16.432;2023-04-25T13:01:23;2.55;;;0.60;;
4021;SDS011;2025;48.260;16.432;2023-04-25T13:03:51;2.83;;;0.45;;
4021;SDS011;2025;48.260;16.432;2023-04-25T13:06:19;3.42;;;0.43;;
4021;SDS011;2025;48.260;16.432;2023-04-25T13:08:46;3.92;;;0.98;;
4021;SDS011;2025;48.260;16.432;2023-04-25T13:11:14;4.68;;;0.88;;
4021;SDS011;2025;48.260;16.432;2023-04-25T13:13:42;3.58;;;0.30;;
4021;SDS011;2025;48.260;16.432;2023-04-25T13:16:10;2.85;;;0.47;;
4021;SDS011;2025;48.260;16.432;2023-04-25T13:18:39;4.28;;;0.73;;
4021;SDS011;2025;48.260;16.432;2023-04-25T13:21:06;2.65;;;0.47;;
4021;SDS011;2025;48.260;16.432;2023-04-25T13:23:34;3.38;;;0.98;;
4021;SDS011;2025;48.260;16.432;2023-04-25T13:26:00;2.83;;;0.40;;
4021;SDS011;2025;48.260;16.432;2023-04-25T13:28:28;2.38;;;0.20;;
4021;SDS011;2025;48.260;16.432;2023-04-25T13:30:56;2.38;;;0.20;;
4021;SDS011;2025;48.260;16.432;2023-04-25T13:33:24;3.30;;;0.30;;
4021;SDS011;2025;48.260;16.432;2023-04-25T13:35:52;2.15;;;0.22;;
4021;SDS011;2025;48.260;16.432;2023-04-25T13:38:21;2.97;;;0.20;;
4021;SDS011;2025;48.260;16.432;2023-04-25T13:40:49;2.42;;;0.30;;
4021;SDS011;2025;48.260;16.432;2023-04-25T13:43:18;2.20;;;0.20;;
4021;SDS011;2025;48.260;16.432;2023-04-25T13:45:46;3.10;;;0.35;;
4021;SDS011;2025;48.260;16.432;2023-04-25T13:48:15;2.20;;;0.40;;
4021;SDS011;2025;48.260;16.432;2023-04-25T13:50:42;3.22;;;0.30;;
4021;SDS011;2025;48.260;16.432;2023-04-25T13:53:09;1.92;;;0.20;;
4021;SDS011;2025;48.260;16.432;2023-04-25T13:55:37;2.78;;;0.25;;
4021;SDS011;2025;48.260;16.432;2023-04-25T13:58:04;1.63;;;0.20;;
4021;SDS011;2025;48.260;16.432;2023-04-25T14:00:33;2.03;;;0.25;;
4021;SDS011;2025;48.260;16.432;2023-04-25T14:03:02;3.28;;;0.30;;
4021;SDS011;2025;48.260;16.432;2023-04-25T14:05:33;2.30;;;0.20;;
4021;SDS011;2025;48.260;16.432;2023-04-25T14:08:05;2.20;;;0.30;;
4021;SDS011;2025;48.260;16.432;2023-04-25T14:10:33;2.28;;;0.20;;
4021;SDS011;2025;48.260;16.432;2023-04-25T14:13:00;2.97;;;0.65;;
4021;SDS011;2025;48.260;16.432;2023-04-25T14:15:28;2.13;;;0.30;;
4021;SDS011;2025;48.260;16.432;2023-04-25T14:17:56;3.70;;;0.50;;
4021;SDS011;2025;48.260;16.432;2023-04-25T14:20:23;3.05;;;0.90;;
4021;SDS011;2025;48.260;16.432;2023-04-25T14:22:51;3.60;;;0.98;;
4021;SDS011;2025;48.260;16.432;2023-04-25T14:25:19;6.85;;;1.33;;
4021;SDS011;2025;48.260;16.432;2023-04-25T14:27:46;6.35;;;0.93;;
4021;SDS011;2025;48.260;16.432;2023-04-25T14:30:15;5.70;;;1.10;;
4021;SDS011;2025;48.260;16.432;2023-04-25T14:32:42;4.65;;;1.25;;
4021;SDS011;2025;48.260;16.432;2023-04-25T14:35:10;4.70;;;1.05;;
4021;SDS011;2025;48.260;16.432;2023-04-25T14:37:37;4.72;;;1.15;;
4021;SDS011;2025;48.260;16.432;2023-04-25T14:40:06;3.65;;;0.98;;
4021;SDS011;2025;48.260;16.432;2023-04-25T14:42:35;3.95;;;0.32;;
4021;SDS011;2025;48.260;16.432;2023-04-25T14:45:03;2.35;;;0.55;;
4021;SDS011;2025;48.260;16.432;2023-04-25T14:47:31;1.95;;;0.65;;
4021;SDS011;2025;48.260;16.432;2023-04-25T14:49:58;1.75;;;1.13;;
4021;SDS011;2025;48.260;16.432;2023-04-25T14:52:26;3.08;;;0.73;;
4021;SDS011;2025;48.260;16.432;2023-04-25T14:54:53;1.88;;;0.35;;
4021;SDS011;2025;48.260;16.432;2023-04-25T14:57:22;2.45;;;0.32;;
4021;SDS011;2025;48.260;16.432;2023-04-25T14:59:49;4.50;;;0.35;;
4021;SDS011;2025;48.260;16.432;2023-04-25T15:02:16;2.55;;;0.52;;
4021;SDS011;2025;48.260;16.432;2023-04-25T15:04:42;2.22;;;0.45;;